Time,TemperatureF,DewpointF,PressureIn,WindDirection,WindDirectionDegrees,WindSpeedMPH,WindSpeedGustMPH,Humidity,HourlyPrecipIn,Conditions,Clouds,dailyrainin,SoftwareType,DateUTC
2013-05-13 00:00:00,41.9,36.8,30.15,NW,306,0.0,0.0,82,0.00,,,0.00,Wunderground v.1.15,2013-05-13 04:00:00,
2013-05-13 00:02:00,41.8,37.0,30.15,NW,306,0.0,0.0,83,0.00,,,0.00,Wunderground v.1.15,2013-05-13 04:02:00,
2013-05-13 00:04:00,41.8,37.0,30.15,NW,306,0.0,0.0,83,0.00,,,0.00,Wunderground v.1.15,2013-05-13 04:04:00,
2013-05-13 00:06:00,41.7,36.9,30.15,NW,306,0.0,0.0,83,0.00,,,0.00,Wunderground v.1.15,2013-05-13 04:06:00,
2013-05-13 00:08:00,41.6,36.8,30.15,NW,306,0.0,0.0,83,0.00,,,0.00,Wunderground v.1.15,2013-05-13 04:08:00,
2013-05-13 00:14:00,41.3,36.8,30.15,NW,306,0.0,0.0,84,0.00,,,0.00,Wunderground v.1.15,2013-05-13 04:14:00,
2013-05-13 00:20:00,40.9,36.7,30.15,NW,306,0.0,0.0,85,0.00,,,0.00,Wunderground v.1.15,2013-05-13 04:20:00,
2013-05-13 00:26:00,40.7,36.8,30.15,NW,306,0.0,0.0,86,0.00,,,0.00,Wunderground v.1.15,2013-05-13 04:26:00,
2013-05-13 00:32:00,40.6,37.0,30.15,NW,306,0.0,0.0,87,0.00,,,0.00,Wunderground v.1.15,2013-05-13 04:32:00,
2013-05-13 00:38:00,40.4,37.1,30.15,NW,306,0.0,0.0,88,0.00,,,0.00,Wunderground v.1.15,2013-05-13 04:38:00,
2013-05-13 00:44:00,40.4,37.1,30.15,NW,306,0.0,0.0,88,0.00,,,0.00,Wunderground v.1.15,2013-05-13 04:44:00,
2013-05-13 00:50:00,40.2,36.9,30.15,NW,306,0.0,0.0,88,0.00,,,0.00,Wunderground v.1.15,2013-05-13 04:50:00,
2013-05-13 00:56:00,40.0,37.0,30.15,NW,306,0.0,0.0,89,0.00,,,0.00,Wunderground v.1.15,2013-05-13 04:56:00,
2013-05-13 01:02:00,39.8,36.8,30.15,NW,306,0.0,0.0,89,0.00,,,0.00,Wunderground v.1.15,2013-05-13 05:02:00,
2013-05-13 01:08:00,39.7,37.0,30.15,NW,306,0.0,0.0,90,0.00,,,0.00,Wunderground v.1.15,2013-05-13 05:08:00,
2013-05-13 01:14:00,39.6,36.9,30.14,NW,306,0.0,0.0,90,0.00,,,0.00,Wunderground v.1.15,2013-05-13 05:14:00,
2013-05-13 01:20:00,39.6,37.2,30.14,NW,306,0.0,0.0,91,0.00,,,0.00,Wunderground v.1.15,2013-05-13 05:20:00,
2013-05-13 01:26:00,39.5,37.1,30.14,NW,306,0.0,0.0,91,0.00,,,0.00,Wunderground v.1.15,2013-05-13 05:26:00,
2013-05-13 01:32:00,39.3,36.9,30.14,NW,306,0.0,0.0,91,0.00,,,0.00,Wunderground v.1.15,2013-05-13 05:32:00,
2013-05-13 01:38:00,39.1,36.7,30.14,NW,306,0.0,0.0,91,0.00,,,0.00,Wunderground v.1.15,2013-05-13 05:38:00,
2013-05-13 01:44:00,38.9,36.5,30.14,NW,306,0.0,0.0,91,0.00,,,0.00,Wunderground v.1.15,2013-05-13 05:44:00,
2013-05-13 01:50:00,38.9,36.5,30.14,NW,306,0.0,0.0,91,0.00,,,0.00,Wunderground v.1.15,2013-05-13 05:50:00,
2013-05-13 01:56:00,38.8,36.7,30.14,NW,306,0.0,0.0,92,0.00,,,0.00,Wunderground v.1.15,2013-05-13 05:56:00,
2013-05-13 02:02:00,38.7,36.6,30.14,NW,306,0.0,0.0,92,0.00,,,0.00,Wunderground v.1.15,2013-05-13 06:02:00,
2013-05-13 02:08:00,38.6,36.5,30.14,NW,306,0.0,0.0,92,0.00,,,0.00,Wunderground v.1.15,2013-05-13 06:08:00,
2013-05-13 02:14:00,38.6,36.5,30.14,NW,306,0.0,0.0,92,0.00,,,0.00,Wunderground v.1.15,2013-05-13 06:14:00,
2013-05-13 02:20:00,38.5,36.4,30.14,NW,306,0.0,0.0,92,0.00,,,0.00,Wunderground v.1.15,2013-05-13 06:20:00,
2013-05-13 02:26:00,38.4,36.3,30.14,NW,306,0.0,0.0,92,0.00,,,0.00,Wunderground v.1.15,2013-05-13 06:26:00,
2013-05-13 02:32:00,38.4,36.6,30.14,NW,306,0.0,0.0,93,0.00,,,0.00,Wunderground v.1.15,2013-05-13 06:32:00,
2013-05-13 02:38:00,38.3,36.5,30.13,NW,306,0.0,0.0,93,0.00,,,0.00,Wunderground v.1.15,2013-05-13 06:38:00,
2013-05-13 02:44:00,38.2,36.4,30.14,NW,306,0.0,0.0,93,0.00,,,0.00,Wunderground v.1.15,2013-05-13 06:44:00,
2013-05-13 02:50:00,38.0,36.2,30.14,NW,306,0.0,0.0,93,0.00,,,0.00,Wunderground v.1.15,2013-05-13 06:50:00,
2013-05-13 02:56:00,37.9,36.1,30.14,NW,306,0.0,0.0,93,0.00,,,0.00,Wunderground v.1.15,2013-05-13 06:56:00,
2013-05-13 03:02:00,37.7,35.9,30.14,NW,306,0.0,0.0,93,0.00,,,0.00,Wunderground v.1.15,2013-05-13 07:02:00,
2013-05-13 03:08:00,37.7,35.9,30.14,NW,306,0.0,0.0,93,0.00,,,0.00,Wunderground v.1.15,2013-05-13 07:08:00,
2013-05-13 03:14:00,37.5,35.7,30.14,NW,306,0.0,0.0,93,0.00,,,0.00,Wunderground v.1.15,2013-05-13 07:14:00,
2013-05-13 03:20:00,37.4,35.8,30.14,NW,306,0.0,0.0,94,0.00,,,0.00,Wunderground v.1.15,2013-05-13 07:20:00,
2013-05-13 03:26:00,37.4,35.8,30.14,NW,306,0.0,0.0,94,0.00,,,0.00,Wunderground v.1.15,2013-05-13 07:26:00,
2013-05-13 03:32:00,37.3,35.7,30.13,NW,306,0.0,0.0,94,0.00,,,0.00,Wunderground v.1.15,2013-05-13 07:32:00,
2013-05-13 03:38:00,37.1,35.5,30.13,NW,306,0.0,0.0,94,0.00,,,0.00,Wunderground v.1.15,2013-05-13 07:38:00,
2013-05-13 03:44:00,36.9,35.1,30.14,NW,306,0.0,0.0,93,0.00,,,0.00,Wunderground v.1.15,2013-05-13 07:44:00,
2013-05-13 03:50:00,36.8,35.2,30.14,NW,306,0.0,0.0,94,0.00,,,0.00,Wunderground v.1.15,2013-05-13 07:50:00,
2013-05-13 03:56:00,36.7,35.1,30.14,NW,306,0.0,0.0,94,0.00,,,0.00,Wunderground v.1.15,2013-05-13 07:56:00,
2013-05-13 04:02:00,36.7,35.1,30.14,NW,306,0.0,0.0,94,0.00,,,0.00,Wunderground v.1.15,2013-05-13 08:02:00,
2013-05-13 04:08:00,36.8,35.2,30.14,NW,306,0.0,0.0,94,0.00,,,0.00,Wunderground v.1.15,2013-05-13 08:08:00,
2013-05-13 04:14:00,36.7,35.1,30.14,NW,306,0.0,0.0,94,0.00,,,0.00,Wunderground v.1.15,2013-05-13 08:14:00,
2013-05-13 04:20:00,36.5,34.9,30.14,NW,306,0.0,0.0,94,0.00,,,0.00,Wunderground v.1.15,2013-05-13 08:20:00,
2013-05-13 04:26:00,36.4,34.8,30.14,NW,306,0.0,0.0,94,0.00,,,0.00,Wunderground v.1.15,2013-05-13 08:26:00,
2013-05-13 04:32:00,36.2,34.6,30.14,NW,306,0.0,0.0,94,0.00,,,0.00,Wunderground v.1.15,2013-05-13 08:32:00,
2013-05-13 04:38:00,36.2,34.6,30.14,NW,306,0.0,0.0,94,0.00,,,0.00,Wunderground v.1.15,2013-05-13 08:38:00,
2013-05-13 04:44:00,36.2,34.6,30.14,NW,306,0.0,0.0,94,0.00,,,0.00,Wunderground v.1.15,2013-05-13 08:44:00,
2013-05-13 04:50:00,36.1,34.5,30.14,NW,306,0.0,0.0,94,0.00,,,0.00,Wunderground v.1.15,2013-05-13 08:50:00,
2013-05-13 04:56:00,36.0,34.4,30.14,NW,306,0.0,0.0,94,0.00,,,0.00,Wunderground v.1.15,2013-05-13 08:56:00,
2013-05-13 05:02:00,36.0,34.7,30.14,NW,306,0.0,0.0,95,0.00,,,0.00,Wunderground v.1.15,2013-05-13 09:02:00,
2013-05-13 05:08:00,35.9,34.6,30.14,NW,306,0.0,0.0,95,0.00,,,0.00,Wunderground v.1.15,2013-05-13 09:08:00,
2013-05-13 05:14:00,35.7,34.1,30.14,NW,306,0.0,0.0,94,0.00,,,0.00,Wunderground v.1.15,2013-05-13 09:14:00,
2013-05-13 05:20:00,35.4,33.8,30.14,NW,306,0.0,0.0,94,0.00,,,0.00,Wunderground v.1.15,2013-05-13 09:20:00,
2013-05-13 05:26:00,35.3,33.7,30.15,NW,306,0.0,0.0,94,0.00,,,0.00,Wunderground v.1.15,2013-05-13 09:26:00,
2013-05-13 05:32:00,35.3,33.7,30.14,NW,306,0.0,0.0,94,0.00,,,0.00,Wunderground v.1.15,2013-05-13 09:32:00,
2013-05-13 05:38:00,35.3,34.0,30.14,NW,306,0.0,0.0,95,0.00,,,0.00,Wunderground v.1.15,2013-05-13 09:38:00,
2013-05-13 05:44:00,35.2,33.6,30.14,NW,306,0.0,0.0,94,0.00,,,0.00,Wunderground v.1.15,2013-05-13 09:44:00,
2013-05-13 05:50:00,35.0,33.7,30.14,NW,306,0.0,0.0,95,0.00,,,0.00,Wunderground v.1.15,2013-05-13 09:50:00,
2013-05-13 05:56:00,35.0,33.7,30.14,NW,306,0.0,0.0,95,0.00,,,0.00,Wunderground v.1.15,2013-05-13 09:56:00,
2013-05-13 06:02:00,35.0,33.7,30.14,NW,306,0.0,0.0,95,0.00,,,0.00,Wunderground v.1.15,2013-05-13 10:02:00,
2013-05-13 06:08:00,35.0,33.7,30.14,NW,306,0.0,0.0,95,0.00,,,0.00,Wunderground v.1.15,2013-05-13 10:08:00,
2013-05-13 06:14:00,34.9,33.6,30.14,NW,306,0.0,0.0,95,0.00,,,0.00,Wunderground v.1.15,2013-05-13 10:14:00,
2013-05-13 06:20:00,34.7,33.4,30.15,NW,306,0.0,0.0,95,0.00,,,0.00,Wunderground v.1.15,2013-05-13 10:20:00,
2013-05-13 06:26:00,34.6,33.3,30.15,NW,306,0.0,0.0,95,0.00,,,0.00,Wunderground v.1.15,2013-05-13 10:26:00,
2013-05-13 06:32:00,34.5,33.2,30.15,NW,306,0.0,0.0,95,0.00,,,0.00,Wunderground v.1.15,2013-05-13 10:32:00,
2013-05-13 06:38:00,34.4,33.1,30.15,NW,306,0.0,0.0,95,0.00,,,0.00,Wunderground v.1.15,2013-05-13 10:38:00,
2013-05-13 06:44:00,34.3,33.0,30.16,NW,306,0.0,0.0,95,0.00,,,0.00,Wunderground v.1.15,2013-05-13 10:44:00,
2013-05-13 06:50:00,34.3,33.0,30.15,NW,306,0.0,0.0,95,0.00,,,0.00,Wunderground v.1.15,2013-05-13 10:50:00,
2013-05-13 06:56:00,34.4,33.1,30.15,NW,306,0.0,0.0,95,0.00,,,0.00,Wunderground v.1.15,2013-05-13 10:56:00,
2013-05-13 07:02:00,34.4,33.1,30.16,NW,306,0.0,0.0,95,0.00,,,0.00,Wunderground v.1.15,2013-05-13 11:02:00,
2013-05-13 07:08:00,34.5,33.2,30.16,NW,306,0.0,0.0,95,0.00,,,0.00,Wunderground v.1.15,2013-05-13 11:08:00,
2013-05-13 07:14:00,34.8,33.5,30.16,NW,306,0.0,0.0,95,0.00,,,0.00,Wunderground v.1.15,2013-05-13 11:14:00,
2013-05-13 07:20:00,35.2,34.2,30.16,NW,306,0.0,0.0,96,0.00,,,0.00,Wunderground v.1.15,2013-05-13 11:20:00,
2013-05-13 07:26:00,35.6,34.6,30.16,NW,306,0.0,0.0,96,0.00,,,0.00,Wunderground v.1.15,2013-05-13 11:26:00,
2013-05-13 07:32:00,36.2,35.2,30.16,NW,306,0.0,0.0,96,0.00,,,0.00,Wunderground v.1.15,2013-05-13 11:32:00,
2013-05-13 07:38:00,36.7,35.7,30.17,NW,306,0.0,0.0,96,0.00,,,0.00,Wunderground v.1.15,2013-05-13 11:38:00,
2013-05-13 07:44:00,37.3,36.3,30.17,NW,306,0.0,0.0,96,0.00,,,0.00,Wunderground v.1.15,2013-05-13 11:44:00,
2013-05-13 07:50:00,38.1,37.1,30.17,NW,306,0.0,0.0,96,0.00,,,0.00,Wunderground v.1.15,2013-05-13 11:50:00,
2013-05-13 07:56:00,38.9,38.1,30.17,NW,306,0.0,0.0,97,0.00,,,0.00,Wunderground v.1.15,2013-05-13 11:56:00,
2013-05-13 08:02:00,40.0,39.2,30.18,NW,306,0.0,0.0,97,0.00,,,0.00,Wunderground v.1.15,2013-05-13 12:02:00,
2013-05-13 08:08:00,41.0,40.2,30.18,NW,306,0.0,0.0,97,0.00,,,0.00,Wunderground v.1.15,2013-05-13 12:08:00,
2013-05-13 08:14:00,41.9,41.1,30.18,NW,306,0.0,0.0,97,0.00,,,0.00,Wunderground v.1.15,2013-05-13 12:14:00,
2013-05-13 08:20:00,42.9,42.1,30.18,NW,306,0.0,0.0,97,0.00,,,0.00,Wunderground v.1.15,2013-05-13 12:20:00,
2013-05-13 08:26:00,43.9,43.1,30.18,NW,306,0.0,0.0,97,0.00,,,0.00,Wunderground v.1.15,2013-05-13 12:26:00,
2013-05-13 08:32:00,44.7,43.9,30.19,NW,306,0.0,2.0,97,0.00,,,0.00,Wunderground v.1.15,2013-05-13 12:32:00,
2013-05-13 08:38:00,45.0,44.2,30.19,NW,306,1.0,2.0,97,0.00,,,0.00,Wunderground v.1.15,2013-05-13 12:38:00,
2013-05-13 08:44:00,45.5,44.2,30.19,WNW,302,1.0,3.0,95,0.00,,,0.00,Wunderground v.1.15,2013-05-13 12:44:00,
2013-05-13 08:50:00,46.1,43.3,30.19,WNW,298,1.0,1.0,90,0.00,,,0.00,Wunderground v.1.15,2013-05-13 12:50:00,
2013-05-13 08:56:00,47.0,43.6,30.19,WNW,298,1.0,2.0,88,0.00,,,0.00,Wunderground v.1.15,2013-05-13 12:56:00,
2013-05-13 09:02:00,47.9,43.6,30.19,West,274,1.0,1.0,85,0.00,,,0.00,Wunderground v.1.15,2013-05-13 13:02:00,
2013-05-13 09:08:00,48.7,43.8,30.20,West,268,1.0,2.0,83,0.00,,,0.00,Wunderground v.1.15,2013-05-13 13:08:00,
2013-05-13 09:14:00,49.6,44.0,30.20,West,261,1.0,4.0,81,0.00,,,0.00,Wunderground v.1.15,2013-05-13 13:14:00,
2013-05-13 09:20:00,50.2,43.6,30.20,West,269,1.0,1.0,78,0.00,,,0.00,Wunderground v.1.15,2013-05-13 13:20:00,
2013-05-13 09:26:00,51.0,44.7,30.20,West,262,2.0,3.0,79,0.00,,,0.00,Wunderground v.1.15,2013-05-13 13:26:00,
2013-05-13 09:32:00,51.6,44.6,30.20,West,262,1.0,1.0,77,0.00,,,0.00,Wunderground v.1.15,2013-05-13 13:32:00,
2013-05-13 09:38:00,52.1,44.8,30.20,West,263,1.0,1.0,76,0.00,,,0.00,Wunderground v.1.15,2013-05-13 13:38:00,
2013-05-13 09:44:00,52.6,45.2,30.20,West,265,2.0,3.0,76,0.00,,,0.00,Wunderground v.1.15,2013-05-13 13:44:00,
2013-05-13 09:50:00,53.1,45.4,30.21,West,262,2.0,4.0,75,0.00,,,0.00,Wunderground v.1.15,2013-05-13 13:50:00,
2013-05-13 09:56:00,53.8,43.9,30.21,WSW,258,1.0,4.0,69,0.00,,,0.00,Wunderground v.1.15,2013-05-13 13:56:00,
2013-05-13 10:02:00,54.4,44.8,30.21,WSW,257,2.0,3.0,70,0.00,,,0.00,Wunderground v.1.15,2013-05-13 14:02:00,
2013-05-13 10:08:00,54.8,44.0,30.21,West,260,2.0,3.0,67,0.00,,,0.00,Wunderground v.1.15,2013-05-13 14:08:00,
2013-05-13 10:14:00,55.3,44.9,30.21,West,261,2.0,5.0,68,0.00,,,0.00,Wunderground v.1.15,2013-05-13 14:14:00,
2013-05-13 10:20:00,56.0,44.0,30.21,WSW,258,1.0,2.0,64,0.00,,,0.00,Wunderground v.1.15,2013-05-13 14:20:00,
2013-05-13 10:26:00,56.6,44.1,30.21,WSW,254,2.0,2.0,63,0.00,,,0.00,Wunderground v.1.15,2013-05-13 14:26:00,
2013-05-13 10:32:00,56.8,43.5,30.21,WSW,248,3.0,5.0,61,0.00,,,0.00,Wunderground v.1.15,2013-05-13 14:32:00,
2013-05-13 10:38:00,57.1,44.6,30.21,SW,231,3.0,6.0,63,0.00,,,0.00,Wunderground v.1.15,2013-05-13 14:38:00,
2013-05-13 10:44:00,57.5,42.4,30.21,WSW,250,3.0,5.0,57,0.00,,,0.00,Wunderground v.1.15,2013-05-13 14:44:00,
2013-05-13 10:50:00,57.8,44.4,30.21,NW,306,2.0,4.0,61,0.00,,,0.00,Wunderground v.1.15,2013-05-13 14:50:00,
2013-05-13 10:56:00,58.0,43.7,30.21,WNW,285,3.0,5.0,59,0.00,,,0.00,Wunderground v.1.15,2013-05-13 14:56:00,
2013-05-13 11:02:00,58.4,42.8,30.21,WNW,301,3.0,3.0,56,0.00,,,0.00,Wunderground v.1.15,2013-05-13 15:02:00,
2013-05-13 11:08:00,58.5,42.4,30.21,WSW,244,3.0,5.0,55,0.00,,,0.00,Wunderground v.1.15,2013-05-13 15:08:00,
2013-05-13 11:14:00,58.7,44.0,30.21,SW,234,4.0,4.0,58,0.00,,,0.00,Wunderground v.1.15,2013-05-13 15:14:00,
2013-05-13 11:20:00,59.1,42.0,30.22,West,269,3.0,4.0,53,0.00,,,0.00,Wunderground v.1.15,2013-05-13 15:20:00,
2013-05-13 11:26:00,59.2,42.1,30.22,West,259,4.0,4.0,53,0.00,,,0.00,Wunderground v.1.15,2013-05-13 15:26:00,
2013-05-13 11:32:00,59.4,42.3,30.22,NNW,338,4.0,5.0,53,0.00,,,0.00,Wunderground v.1.15,2013-05-13 15:32:00,
2013-05-13 11:38:00,59.7,40.0,30.22,WNW,288,4.0,5.0,48,0.00,,,0.00,Wunderground v.1.15,2013-05-13 15:38:00,
2013-05-13 11:44:00,59.8,42.1,30.22,NW,317,3.0,5.0,52,0.00,,,0.00,Wunderground v.1.15,2013-05-13 15:44:00,
2013-05-13 11:50:00,60.3,42.6,30.22,WNW,287,3.0,3.0,52,0.00,,,0.00,Wunderground v.1.15,2013-05-13 15:50:00,
2013-05-13 11:56:00,60.5,40.2,30.21,WSW,253,2.0,4.0,47,0.00,,,0.00,Wunderground v.1.15,2013-05-13 15:56:00,
2013-05-13 12:02:00,60.6,41.3,30.21,WSW,239,3.0,6.0,49,0.00,,,0.00,Wunderground v.1.15,2013-05-13 16:02:00,
2013-05-13 12:08:00,60.8,41.5,30.21,NW,307,3.0,6.0,49,0.00,,,0.00,Wunderground v.1.15,2013-05-13 16:08:00,
2013-05-13 12:14:00,61.0,40.1,30.21,West,259,3.0,4.0,46,0.00,,,0.00,Wunderground v.1.15,2013-05-13 16:14:00,
2013-05-13 12:20:00,60.8,39.3,30.21,WNW,296,3.0,5.0,45,0.00,,,0.00,Wunderground v.1.15,2013-05-13 16:20:00,
2013-05-13 12:26:00,60.8,41.0,30.21,NW,306,3.0,7.0,48,0.00,,,0.00,Wunderground v.1.15,2013-05-13 16:26:00,
2013-05-13 12:32:00,61.0,39.5,30.21,WNW,300,3.0,4.0,45,0.00,,,0.00,Wunderground v.1.15,2013-05-13 16:32:00,
2013-05-13 12:38:00,61.2,39.7,30.20,NNW,333,3.0,4.0,45,0.00,,,0.00,Wunderground v.1.15,2013-05-13 16:38:00,
2013-05-13 12:44:00,61.5,39.9,30.20,West,265,3.0,6.0,45,0.00,,,0.00,Wunderground v.1.15,2013-05-13 16:44:00,
2013-05-13 12:50:00,61.5,36.9,30.21,WNW,294,4.0,4.0,40,0.00,,,0.00,Wunderground v.1.15,2013-05-13 16:50:00,
2013-05-13 12:56:00,61.5,40.5,30.20,West,265,4.0,5.0,46,0.00,,,0.00,Wunderground v.1.15,2013-05-13 16:56:00,
2013-05-13 13:02:00,61.6,42.2,30.20,WNW,298,2.0,3.0,49,0.00,,,0.00,Wunderground v.1.15,2013-05-13 17:02:00,
2013-05-13 13:08:00,61.8,40.8,30.20,NW,306,4.0,5.0,46,0.00,,,0.00,Wunderground v.1.15,2013-05-13 17:08:00,
2013-05-13 13:14:00,61.9,41.4,30.20,WNW,288,3.0,5.0,47,0.00,,,0.00,Wunderground v.1.15,2013-05-13 17:14:00,
2013-05-13 13:20:00,62.0,39.8,30.20,NW,310,3.0,3.0,44,0.00,,,0.00,Wunderground v.1.15,2013-05-13 17:20:00,
2013-05-13 13:26:00,61.9,37.3,30.20,WNW,302,5.0,7.0,40,0.00,,,0.00,Wunderground v.1.15,2013-05-13 17:26:00,
2013-05-13 13:32:00,61.8,40.2,30.20,WNW,288,5.0,5.0,45,0.00,,,0.00,Wunderground v.1.15,2013-05-13 17:32:00,
2013-05-13 13:38:00,62.2,42.3,30.20,NW,317,4.0,8.0,48,0.00,,,0.00,Wunderground v.1.15,2013-05-13 17:38:00,
2013-05-13 13:44:00,62.4,40.8,30.19,WNW,286,3.0,7.0,45,0.00,,,0.00,Wunderground v.1.15,2013-05-13 17:44:00,
2013-05-13 13:50:00,62.5,37.8,30.19,NNW,332,2.0,5.0,40,0.00,,,0.00,Wunderground v.1.15,2013-05-13 17:50:00,
2013-05-13 13:56:00,62.9,41.8,30.19,WNW,292,3.0,5.0,46,0.00,,,0.00,Wunderground v.1.15,2013-05-13 17:56:00,
2013-05-13 14:02:00,63.0,41.9,30.19,WNW,298,3.0,4.0,46,0.00,,,0.00,Wunderground v.1.15,2013-05-13 18:02:00,
2013-05-13 14:08:00,63.2,42.1,30.19,SW,234,3.0,5.0,46,0.00,,,0.00,Wunderground v.1.15,2013-05-13 18:08:00,
2013-05-13 14:14:00,63.4,43.4,30.19,WNW,282,3.0,3.0,48,0.00,,,0.00,Wunderground v.1.15,2013-05-13 18:14:00,
2013-05-13 14:20:00,63.4,40.5,30.18,WSW,239,3.0,4.0,43,0.00,,,0.00,Wunderground v.1.15,2013-05-13 18:20:00,
2013-05-13 14:26:00,63.2,41.5,30.18,West,275,4.0,4.0,45,0.00,,,0.00,Wunderground v.1.15,2013-05-13 18:26:00,
2013-05-13 14:32:00,63.4,41.7,30.18,West,276,3.0,7.0,45,0.00,,,0.00,Wunderground v.1.15,2013-05-13 18:32:00,
2013-05-13 14:38:00,63.5,42.3,30.18,West,281,2.0,7.0,46,0.00,,,0.00,Wunderground v.1.15,2013-05-13 18:38:00,
2013-05-13 14:44:00,63.7,40.8,30.18,WSW,242,3.0,9.0,43,0.00,,,0.00,Wunderground v.1.15,2013-05-13 18:44:00,
2013-05-13 14:50:00,63.6,38.2,30.18,NW,304,4.0,4.0,39,0.00,,,0.00,Wunderground v.1.15,2013-05-13 18:50:00,
2013-05-13 14:56:00,63.8,39.6,30.18,West,259,4.0,6.0,41,0.00,,,0.00,Wunderground v.1.15,2013-05-13 18:56:00,
2013-05-13 15:02:00,63.9,41.0,30.18,WSW,258,4.0,5.0,43,0.00,,,0.00,Wunderground v.1.15,2013-05-13 19:02:00,
2013-05-13 15:08:00,63.9,37.1,30.18,NW,309,3.0,5.0,37,0.00,,,0.00,Wunderground v.1.15,2013-05-13 19:08:00,
2013-05-13 15:14:00,64.2,43.0,30.18,WSW,250,3.0,8.0,46,0.00,,,0.00,Wunderground v.1.15,2013-05-13 19:14:00,
2013-05-13 15:20:00,64.2,38.7,30.17,WNW,298,3.0,3.0,39,0.00,,,0.00,Wunderground v.1.15,2013-05-13 19:20:00,
2013-05-13 15:26:00,64.5,39.6,30.17,West,279,2.0,4.0,40,0.00,,,0.00,Wunderground v.1.15,2013-05-13 19:26:00,
2013-05-13 15:32:00,64.9,43.6,30.17,WSW,246,2.0,3.0,46,0.00,,,0.00,Wunderground v.1.15,2013-05-13 19:32:00,
2013-05-13 15:38:00,65.2,42.1,30.17,WNW,294,3.0,3.0,43,0.00,,,0.00,Wunderground v.1.15,2013-05-13 19:38:00,
2013-05-13 15:44:00,65.0,43.7,30.16,North,360,3.0,3.0,46,0.00,,,0.00,Wunderground v.1.15,2013-05-13 19:44:00,
2013-05-13 15:50:00,65.2,40.3,30.16,NNW,338,2.0,2.0,40,0.00,,,0.00,Wunderground v.1.15,2013-05-13 19:50:00,
2013-05-13 15:56:00,65.3,40.3,30.16,NW,311,2.0,7.0,40,0.00,,,0.00,Wunderground v.1.15,2013-05-13 19:56:00,
2013-05-13 16:02:00,65.0,42.5,30.16,WSW,248,3.0,5.0,44,0.00,,,0.00,Wunderground v.1.15,2013-05-13 20:02:00,
2013-05-13 16:08:00,65.2,43.9,30.16,WNW,294,2.0,5.0,46,0.00,,,0.00,Wunderground v.1.15,2013-05-13 20:08:00,
2013-05-13 16:14:00,65.3,41.6,30.15,West,280,3.0,6.0,42,0.00,,,0.00,Wunderground v.1.15,2013-05-13 20:14:00,
2013-05-13 16:20:00,65.0,38.1,30.15,NW,321,3.0,3.0,37,0.00,,,0.00,Wunderground v.1.15,2013-05-13 20:20:00,
2013-05-13 16:26:00,65.4,41.7,30.15,NW,319,1.0,4.0,42,0.00,,,0.00,Wunderground v.1.15,2013-05-13 20:26:00,
2013-05-13 16:32:00,65.5,42.4,30.15,NNW,343,1.0,1.0,43,0.00,,,0.00,Wunderground v.1.15,2013-05-13 20:32:00,
2013-05-13 16:38:00,65.5,38.5,30.15,North,355,1.0,3.0,37,0.00,,,0.00,Wunderground v.1.15,2013-05-13 20:38:00,
2013-05-13 16:44:00,65.6,39.3,30.15,NW,322,2.0,2.0,38,0.00,,,0.00,Wunderground v.1.15,2013-05-13 20:44:00,
2013-05-13 16:50:00,65.5,38.5,30.14,WNW,282,2.0,2.0,37,0.00,,,0.00,Wunderground v.1.15,2013-05-13 20:50:00,
2013-05-13 16:56:00,65.7,38.7,30.14,WNW,300,2.0,3.0,37,0.00,,,0.00,Wunderground v.1.15,2013-05-13 20:56:00,
2013-05-13 17:02:00,65.9,39.6,30.14,WNW,294,2.0,3.0,38,0.00,,,0.00,Wunderground v.1.15,2013-05-13 21:02:00,
2013-05-13 17:08:00,66.0,40.3,30.14,West,261,2.0,3.0,39,0.00,,,0.00,Wunderground v.1.15,2013-05-13 21:08:00,
2013-05-13 17:14:00,66.0,40.3,30.14,NNW,334,2.0,6.0,39,0.00,,,0.00,Wunderground v.1.15,2013-05-13 21:14:00,
2013-05-13 17:20:00,65.9,41.5,30.13,West,270,2.0,5.0,41,0.00,,,0.00,Wunderground v.1.15,2013-05-13 21:20:00,
2013-05-13 17:26:00,65.7,40.7,30.13,SW,236,2.0,5.0,40,0.00,,,0.00,Wunderground v.1.15,2013-05-13 21:26:00,
2013-05-13 17:32:00,65.8,40.1,30.13,West,281,2.0,4.0,39,0.00,,,0.00,Wunderground v.1.15,2013-05-13 21:32:00,
2013-05-13 17:38:00,65.8,38.8,30.12,WNW,290,2.0,4.0,37,0.00,,,0.00,Wunderground v.1.15,2013-05-13 21:38:00,
2013-05-13 17:44:00,66.3,41.2,30.13,WNW,292,1.0,1.0,40,0.00,,,0.00,Wunderground v.1.15,2013-05-13 21:44:00,
2013-05-13 17:50:00,66.6,39.5,30.13,WNW,293,1.0,4.0,37,0.00,,,0.00,Wunderground v.1.15,2013-05-13 21:50:00,
2013-05-13 17:56:00,66.3,39.2,30.13,West,260,1.0,4.0,37,0.00,,,0.00,Wunderground v.1.15,2013-05-13 21:56:00,
2013-05-13 18:02:00,66.3,41.9,30.13,West,268,2.0,2.0,41,0.00,,,0.00,Wunderground v.1.15,2013-05-13 22:02:00,
2013-05-13 18:08:00,66.3,39.9,30.13,WSW,257,2.0,4.0,38,0.00,,,0.00,Wunderground v.1.15,2013-05-13 22:08:00,
2013-05-13 18:14:00,66.1,41.7,30.13,West,263,1.0,4.0,41,0.00,,,0.00,Wunderground v.1.15,2013-05-13 22:14:00,
2013-05-13 18:20:00,66.0,38.3,30.13,NNW,348,2.0,3.0,36,0.00,,,0.00,Wunderground v.1.15,2013-05-13 22:20:00,
2013-05-13 18:26:00,65.9,39.6,30.13,WNW,290,2.0,3.0,38,0.00,,,0.00,Wunderground v.1.15,2013-05-13 22:26:00,
2013-05-13 18:32:00,65.9,39.6,30.12,WNW,288,2.0,3.0,38,0.00,,,0.00,Wunderground v.1.15,2013-05-13 22:32:00,
2013-05-13 18:38:00,65.7,39.4,30.12,NW,319,2.0,4.0,38,0.00,,,0.00,Wunderground v.1.15,2013-05-13 22:38:00,
2013-05-13 18:44:00,65.7,40.7,30.12,NW,314,1.0,2.0,40,0.00,,,0.00,Wunderground v.1.15,2013-05-13 22:44:00,
2013-05-13 18:50:00,65.5,37.1,30.11,NW,310,1.0,1.0,35,0.00,,,0.00,Wunderground v.1.15,2013-05-13 22:50:00,
2013-05-13 18:56:00,65.6,40.0,30.11,NW,313,1.0,4.0,39,0.00,,,0.00,Wunderground v.1.15,2013-05-13 22:56:00,
2013-05-13 19:02:00,65.7,38.7,30.11,NW,318,0.0,2.0,37,0.00,,,0.00,Wunderground v.1.15,2013-05-13 23:02:00,
2013-05-13 19:08:00,65.7,41.3,30.11,NW,315,0.0,2.0,41,0.00,,,0.00,Wunderground v.1.15,2013-05-13 23:08:00,
2013-05-13 19:14:00,65.7,39.4,30.11,NW,306,0.0,0.0,38,0.00,,,0.00,Wunderground v.1.15,2013-05-13 23:14:00,
2013-05-13 19:20:00,65.7,41.3,30.11,WNW,299,0.0,0.0,41,0.00,,,0.00,Wunderground v.1.15,2013-05-13 23:20:00,
2013-05-13 19:26:00,65.6,40.0,30.11,WNW,299,0.0,0.0,39,0.00,,,0.00,Wunderground v.1.15,2013-05-13 23:26:00,
2013-05-13 19:32:00,65.3,39.7,30.11,WNW,299,0.0,0.0,39,0.00,,,0.00,Wunderground v.1.15,2013-05-13 23:32:00,
2013-05-13 19:38:00,65.2,39.6,30.11,West,274,0.0,0.0,39,0.00,,,0.00,Wunderground v.1.15,2013-05-13 23:38:00,
2013-05-13 19:44:00,65.4,43.5,30.11,WSW,237,0.0,0.0,45,0.00,,,0.00,Wunderground v.1.15,2013-05-13 23:44:00,
2013-05-13 19:50:00,65.2,38.9,30.11,WSW,237,0.0,0.0,38,0.00,,,0.00,Wunderground v.1.15,2013-05-13 23:50:00,
2013-05-13 19:56:00,64.8,41.2,30.11,ENE,72,0.0,0.0,42,0.00,,,0.00,Wunderground v.1.15,2013-05-13 23:56:00,
2013-05-13 20:02:00,64.3,41.3,30.11,ENE,72,0.0,0.0,43,0.00,,,0.00,Wunderground v.1.15,2013-05-14 00:02:00,
2013-05-13 20:08:00,63.8,41.5,30.12,ENE,72,0.0,0.0,44,0.00,,,0.00,Wunderground v.1.15,2013-05-14 00:08:00,
2013-05-13 20:14:00,63.4,40.5,30.12,ENE,72,0.0,0.0,43,0.00,,,0.00,Wunderground v.1.15,2013-05-14 00:14:00,
2013-05-13 20:20:00,62.9,41.2,30.11,ENE,72,0.0,0.0,45,0.00,,,0.00,Wunderground v.1.15,2013-05-14 00:20:00,
2013-05-13 20:26:00,62.5,40.9,30.11,ENE,72,0.0,0.0,45,0.00,,,0.00,Wunderground v.1.15,2013-05-14 00:26:00,
2013-05-13 20:32:00,61.9,40.3,30.12,ENE,72,0.0,0.0,45,0.00,,,0.00,Wunderground v.1.15,2013-05-14 00:32:00,
2013-05-13 20:38:00,61.4,38.7,30.12,ENE,72,0.0,0.0,43,0.00,,,0.00,Wunderground v.1.15,2013-05-14 00:38:00,
2013-05-13 20:44:00,60.7,45.8,30.12,ENE,72,0.0,0.0,58,0.00,,,0.00,Wunderground v.1.15,2013-05-14 00:44:00,
2013-05-13 20:50:00,59.3,41.7,30.12,ENE,72,0.0,0.0,52,0.00,,,0.00,Wunderground v.1.15,2013-05-14 00:50:00,
2013-05-13 20:56:00,58.3,41.7,30.12,WSW,242,0.0,0.0,54,0.00,,,0.00,Wunderground v.1.15,2013-05-14 00:56:00,
2013-05-13 21:02:00,57.5,40.5,30.12,WSW,242,0.0,0.0,53,0.00,,,0.00,Wunderground v.1.15,2013-05-14 01:02:00,
2013-05-13 21:08:00,56.8,41.7,30.13,WSW,242,0.0,0.0,57,0.00,,,0.00,Wunderground v.1.15,2013-05-14 01:08:00,
2013-05-13 21:14:00,56.2,40.2,30.12,WSW,242,0.0,0.0,55,0.00,,,0.00,Wunderground v.1.15,2013-05-14 01:14:00,
2013-05-13 21:20:00,55.7,39.3,30.12,WSW,242,0.0,0.0,54,0.00,,,0.00,Wunderground v.1.15,2013-05-14 01:20:00,
2013-05-13 21:26:00,55.2,40.7,30.13,WSW,242,0.0,0.0,58,0.00,,,0.00,Wunderground v.1.15,2013-05-14 01:26:00,
2013-05-13 21:32:00,54.6,41.8,30.13,WSW,242,0.0,0.0,62,0.00,,,0.00,Wunderground v.1.15,2013-05-14 01:32:00,
2013-05-13 21:38:00,54.0,42.5,30.13,WSW,242,0.0,0.0,65,0.00,,,0.00,Wunderground v.1.15,2013-05-14 01:38:00,
2013-05-13 21:44:00,53.3,41.8,30.13,WSW,242,0.0,0.0,65,0.00,,,0.00,Wunderground v.1.15,2013-05-14 01:44:00,
2013-05-13 21:50:00,52.7,40.0,30.13,WSW,242,0.0,0.0,62,0.00,,,0.00,Wunderground v.1.15,2013-05-14 01:50:00,
2013-05-13 21:56:00,52.4,41.4,30.14,WSW,242,0.0,0.0,66,0.00,,,0.00,Wunderground v.1.15,2013-05-14 01:56:00,
2013-05-13 22:04:00,51.9,41.7,30.14,WSW,242,0.0,0.0,68,0.00,,,0.00,Wunderground v.1.15,2013-05-14 02:04:00,
2013-05-13 22:10:00,51.4,41.9,30.14,WSW,242,0.0,0.0,70,0.00,,,0.00,Wunderground v.1.15,2013-05-14 02:10:00,
2013-05-13 22:16:00,51.0,41.2,30.14,WSW,242,0.0,0.0,69,0.00,,,0.00,Wunderground v.1.15,2013-05-14 02:16:00,
2013-05-13 22:22:00,50.6,41.5,30.14,WSW,242,0.0,0.0,71,0.00,,,0.00,Wunderground v.1.15,2013-05-14 02:22:00,
2013-05-13 22:28:00,50.3,41.6,30.14,WSW,242,0.0,0.0,72,0.00,,,0.00,Wunderground v.1.15,2013-05-14 02:28:00,
2013-05-13 22:34:00,50.0,42.0,30.14,WSW,242,0.0,0.0,74,0.00,,,0.00,Wunderground v.1.15,2013-05-14 02:34:00,
2013-05-13 22:40:00,49.6,42.0,30.14,WSW,242,0.0,0.0,75,0.00,,,0.00,Wunderground v.1.15,2013-05-14 02:40:00,
2013-05-13 22:46:00,49.4,42.1,30.14,WSW,242,0.0,0.0,76,0.00,,,0.00,Wunderground v.1.15,2013-05-14 02:46:00,
2013-05-13 22:52:00,49.1,42.5,30.15,WSW,242,0.0,0.0,78,0.00,,,0.00,Wunderground v.1.15,2013-05-14 02:52:00,
2013-05-13 22:58:00,48.9,42.0,30.14,WSW,242,0.0,0.0,77,0.00,,,0.00,Wunderground v.1.15,2013-05-14 02:58:00,
2013-05-13 23:04:00,48.7,41.8,30.14,WSW,242,0.0,0.0,77,0.00,,,0.00,Wunderground v.1.15,2013-05-14 03:04:00,
2013-05-13 23:10:00,48.6,42.0,30.14,WSW,242,0.0,0.0,78,0.00,,,0.00,Wunderground v.1.15,2013-05-14 03:10:00,
2013-05-13 23:16:00,48.4,41.9,30.14,WSW,242,0.0,0.0,78,0.00,,,0.00,Wunderground v.1.15,2013-05-14 03:16:00,
2013-05-13 23:22:00,48.0,41.8,30.14,WSW,242,0.0,0.0,79,0.00,,,0.00,Wunderground v.1.15,2013-05-14 03:22:00,
2013-05-13 23:28:00,47.9,42.0,30.13,WSW,242,0.0,0.0,80,0.00,,,0.00,Wunderground v.1.15,2013-05-14 03:28:00,
2013-05-13 23:34:00,47.9,42.0,30.14,WSW,242,0.0,0.0,80,0.00,,,0.00,Wunderground v.1.15,2013-05-14 03:34:00,
2013-05-13 23:40:00,47.8,42.3,30.13,WSW,242,0.0,0.0,81,0.00,,,0.00,Wunderground v.1.15,2013-05-14 03:40:00,
2013-05-13 23:46:00,47.6,42.1,30.13,WSW,242,0.0,0.0,81,0.00,,,0.00,Wunderground v.1.15,2013-05-14 03:46:00,
2013-05-13 23:52:00,47.4,42.2,30.13,WSW,242,0.0,0.0,82,0.00,,,0.00,Wunderground v.1.15,2013-05-14 03:52:00,
2013-05-13 23:58:00,47.2,42.0,30.13,WSW,242,0.0,0.0,82,0.00,,,0.00,Wunderground v.1.15,2013-05-14 03:58:00,